Time,TemperatureF,DewpointF,PressureIn,WindDirection,WindDirectionDegrees,WindSpeedMPH,WindSpeedGustMPH,Humidity,HourlyPrecipIn,Conditions,Clouds,dailyrainin,SolarRadiationWatts/m^2,SoftwareType,DateUTC
2013-08-15 00:03:00,72.0,70.0,-100.00,WSW,257,3.0,10.0,92,0.34,,,0.54,0.000000,,2013-08-15 04:03:00,
2013-08-15 00:43:00,71.0,69.0,-100.00,SSW,210,0.0,4.0,93,0.01,,,0.55,0.000000,,2013-08-15 04:43:00,
2013-08-15 00:52:00,71.0,69.0,-100.00,SSW,210,0.0,4.0,93,0.01,,,0.55,0.000000,,2013-08-15 04:52:00,
2013-08-15 01:02:00,71.0,69.0,-100.00,SSW,210,0.0,4.0,93,0.01,,,0.55,0.000000,,2013-08-15 05:02:00,
2013-08-15 01:42:00,71.0,69.0,-100.00,NE,36,1.0,2.0,93,0.00,,,0.54,0.000000,,2013-08-15 05:42:00,
2013-08-15 01:52:00,71.0,69.0,-100.00,NE,36,1.0,2.0,93,0.00,,,0.54,0.000000,,2013-08-15 05:52:00,
2013-08-15 02:02:00,71.0,69.0,-100.00,NE,36,1.0,2.0,93,0.00,,,0.54,0.000000,,2013-08-15 06:02:00,
2013-08-15 02:21:00,71.0,69.0,-100.00,WNW,295,0.0,0.0,94,0.00,,,0.54,0.000000,,2013-08-15 06:21:00,
2013-08-15 02:32:00,71.0,69.0,-100.00,WNW,295,0.0,0.0,94,0.00,,,0.54,0.000000,,2013-08-15 06:32:00,
2013-08-15 02:42:00,71.0,69.0,-100.00,WNW,295,0.0,0.0,94,0.00,,,0.54,0.000000,,2013-08-15 06:42:00,
2013-08-15 02:52:00,71.0,69.0,-100.00,WNW,295,0.0,0.0,94,0.00,,,0.54,0.000000,,2013-08-15 06:52:00,
2013-08-15 03:02:00,71.0,69.0,-100.00,WNW,295,0.0,0.0,94,0.00,,,0.54,0.000000,,2013-08-15 07:02:00,
2013-08-15 03:21:00,71.0,69.0,-100.00,ESE,121,1.0,1.0,94,0.00,,,0.54,0.000000,,2013-08-15 07:21:00,
2013-08-15 03:32:00,71.0,69.0,-100.00,ESE,121,1.0,1.0,94,0.00,,,0.54,0.000000,,2013-08-15 07:32:00,
2013-08-15 03:42:00,71.0,69.0,-100.00,ESE,121,1.0,1.0,94,0.00,,,0.54,0.000000,,2013-08-15 07:42:00,
2013-08-15 03:52:00,71.0,69.0,-100.00,ESE,121,1.0,1.0,94,0.00,,,0.54,0.000000,,2013-08-15 07:52:00,
2013-08-15 04:02:00,71.0,69.0,-100.00,ESE,121,1.0,1.0,94,0.00,,,0.54,0.000000,,2013-08-15 08:02:00,
2013-08-15 04:21:00,71.0,69.0,-100.00,North,353,0.0,0.0,94,0.00,,,0.54,0.000000,,2013-08-15 08:21:00,
2013-08-15 04:33:00,71.0,69.0,-100.00,North,353,0.0,0.0,94,0.00,,,0.54,0.000000,,2013-08-15 08:33:00,
2013-08-15 04:42:00,71.0,69.0,-100.00,North,353,0.0,0.0,94,0.00,,,0.54,0.000000,,2013-08-15 08:42:00,
2013-08-15 04:52:00,71.0,69.0,-100.00,North,353,0.0,0.0,94,0.00,,,0.54,0.000000,,2013-08-15 08:52:00,
2013-08-15 05:01:00,71.0,69.0,-100.00,North,353,0.0,0.0,94,0.00,,,0.54,0.000000,,2013-08-15 09:01:00,
2013-08-15 05:42:00,71.0,69.0,-100.00,South,187,0.0,0.0,94,0.00,,,0.54,0.000000,,2013-08-15 09:42:00,
2013-08-15 05:53:00,71.0,69.0,-100.00,South,187,0.0,0.0,94,0.00,,,0.54,0.000000,,2013-08-15 09:53:00,
2013-08-15 06:03:00,71.0,69.0,-100.00,South,187,0.0,0.0,94,0.00,,,0.54,0.000000,,2013-08-15 10:03:00,
2013-08-15 06:42:00,71.0,69.0,-100.00,ENE,58,0.0,0.0,94,0.00,,,0.54,0.000000,,2013-08-15 10:42:00,
2013-08-15 06:52:00,71.0,69.0,-100.00,ENE,58,0.0,0.0,94,0.00,,,0.54,0.000000,,2013-08-15 10:52:00,
2013-08-15 07:02:00,71.0,69.0,-100.00,ENE,58,0.0,0.0,94,0.00,,,0.54,0.000000,,2013-08-15 11:02:00,
2013-08-15 07:42:00,71.0,69.0,-100.00,North,349,0.0,0.0,94,0.00,,,0.54,0.000000,,2013-08-15 11:42:00,
2013-08-15 07:52:00,71.0,69.0,-100.00,North,349,0.0,0.0,94,0.00,,,0.54,0.000000,,2013-08-15 11:52:00,
2013-08-15 08:01:00,71.0,69.0,-100.00,North,349,0.0,0.0,94,0.00,,,0.54,0.000000,,2013-08-15 12:01:00,
2013-08-15 08:21:00,72.0,70.0,-100.00,NNW,339,0.0,0.0,94,0.00,,,0.54,30.000000,,2013-08-15 12:21:00,
2013-08-15 08:32:00,72.0,70.0,-100.00,NNW,339,0.0,0.0,94,0.00,,,0.54,30.000000,,2013-08-15 12:32:00,
2013-08-15 08:42:00,72.0,70.0,-100.00,NNW,339,0.0,0.0,94,0.00,,,0.54,30.000000,,2013-08-15 12:42:00,
2013-08-15 08:52:00,72.0,70.0,-100.00,NNW,339,0.0,0.0,94,0.00,,,0.54,30.000000,,2013-08-15 12:52:00,
2013-08-15 09:01:00,72.0,70.0,-100.00,NNW,339,0.0,0.0,94,0.00,,,0.54,30.000000,,2013-08-15 13:01:00,
2013-08-15 09:21:00,76.0,74.0,-100.00,SW,236,0.0,0.0,94,0.00,,,0.54,142.000000,,2013-08-15 13:21:00,
2013-08-15 09:32:00,76.0,74.0,-100.00,SW,236,0.0,0.0,94,0.00,,,0.54,142.000000,,2013-08-15 13:32:00,
2013-08-15 09:42:00,76.0,74.0,-100.00,SW,236,0.0,0.0,94,0.00,,,0.54,142.000000,,2013-08-15 13:42:00,
2013-08-15 09:52:00,76.0,74.0,-100.00,SW,236,0.0,0.0,94,0.00,,,0.54,142.000000,,2013-08-15 13:52:00,
2013-08-15 10:02:00,76.0,74.0,-100.00,SW,236,0.0,0.0,94,0.00,,,0.54,142.000000,,2013-08-15 14:02:00,
2013-08-15 10:04:00,83.0,78.0,-100.00,South,182,2.0,4.0,85,0.01,,,0.55,456.000000,,2013-08-15 14:04:00,
2013-08-15 10:47:00,83.0,78.0,-100.00,South,182,2.0,4.0,85,0.01,,,0.55,456.000000,,2013-08-15 14:47:00,
2013-08-15 10:56:00,83.0,78.0,-100.00,South,182,2.0,4.0,85,0.01,,,0.55,456.000000,,2013-08-15 14:56:00,
2013-08-15 11:04:00,87.0,78.0,-100.00,SW,235,2.0,6.0,75,0.00,,,0.55,613.000000,,2013-08-15 15:04:00,
2013-08-15 11:43:00,87.0,78.0,-100.00,SW,235,2.0,6.0,75,0.00,,,0.55,613.000000,,2013-08-15 15:43:00,
2013-08-15 11:54:00,87.0,78.0,-100.00,SW,235,2.0,6.0,75,0.00,,,0.55,613.000000,,2013-08-15 15:54:00,
2013-08-15 12:04:00,89.0,77.0,-100.00,WNW,287,4.0,9.0,67,0.00,,,0.55,695.000000,,2013-08-15 16:04:00,
2013-08-15 12:26:00,89.0,77.0,-100.00,WNW,287,4.0,9.0,67,0.00,,,0.55,695.000000,,2013-08-15 16:26:00,
2013-08-15 12:35:00,89.0,77.0,-100.00,WNW,287,4.0,9.0,67,0.00,,,0.55,695.000000,,2013-08-15 16:35:00,
2013-08-15 12:44:00,89.0,77.0,-100.00,WNW,287,4.0,9.0,67,0.00,,,0.55,695.000000,,2013-08-15 16:44:00,
2013-08-15 12:55:00,89.0,77.0,-100.00,WNW,287,4.0,9.0,67,0.00,,,0.55,695.000000,,2013-08-15 16:55:00,
2013-08-15 13:04:00,89.0,73.0,-100.00,WNW,282,4.0,8.0,59,0.00,,,0.55,676.000000,,2013-08-15 17:04:00,
2013-08-15 13:55:00,89.0,73.0,-100.00,WNW,282,4.0,8.0,59,0.00,,,0.55,676.000000,,2013-08-15 17:55:00,
2013-08-15 14:00:00,-999.0,-99.9,-100.00,WNW,282,4.0,8.0,-999,-99.99,,,-99.99,676.000000,,2013-08-15 18:00:00,
2013-08-15 14:04:00,-999.0,-99.9,-100.00,SE,137,3.0,8.0,-999,0.00,,,0.55,836.000000,,2013-08-15 18:04:00,
2013-08-15 14:36:00,-999.0,-99.9,-100.00,SE,137,3.0,8.0,-999,0.00,,,0.55,836.000000,,2013-08-15 18:36:00,
2013-08-15 14:49:00,92.0,75.0,-100.00,SE,137,3.0,8.0,57,0.00,,,0.55,836.000000,,2013-08-15 18:49:00,
2013-08-15 15:04:00,82.0,71.0,-100.00,ENE,68,6.0,13.0,69,0.00,,,0.55,550.000000,,2013-08-15 19:04:00,
2013-08-15 15:34:00,-999.0,-99.9,-100.00,ENE,68,6.0,13.0,-999,-99.99,,,-99.99,550.000000,,2013-08-15 19:34:00,
2013-08-15 15:49:00,82.0,71.0,-100.00,ENE,68,6.0,13.0,69,0.00,,,0.55,550.000000,,2013-08-15 19:49:00,
2013-08-15 16:04:00,78.0,73.0,-100.00,East,92,6.0,14.0,85,0.01,,,0.56,426.000000,,2013-08-15 20:04:00,
2013-08-15 16:46:00,78.0,73.0,-100.00,East,92,6.0,14.0,85,0.01,,,0.56,426.000000,,2013-08-15 20:46:00,
2013-08-15 17:04:00,76.0,72.0,-100.00,NNW,339,6.0,15.0,87,0.02,,,0.58,72.000000,,2013-08-15 21:04:00,
2013-08-15 17:41:00,76.0,72.0,-100.00,NNW,339,6.0,15.0,87,0.02,,,0.58,72.000000,,2013-08-15 21:41:00,
2013-08-15 17:49:00,76.0,72.0,-100.00,NNW,339,6.0,15.0,87,0.02,,,0.58,72.000000,,2013-08-15 21:49:00,
2013-08-15 17:57:00,76.0,72.0,-100.00,NNW,339,6.0,15.0,87,0.02,,,0.58,72.000000,,2013-08-15 21:57:00,
2013-08-15 18:04:00,73.0,71.0,-100.00,NE,56,5.0,12.0,93,0.30,,,0.88,1.000000,,2013-08-15 22:04:00,
2013-08-15 18:29:00,73.0,71.0,-100.00,NE,56,5.0,12.0,93,0.30,,,0.88,1.000000,,2013-08-15 22:29:00,
2013-08-15 18:40:00,73.0,71.0,-100.00,NE,56,5.0,12.0,93,0.30,,,0.88,1.000000,,2013-08-15 22:40:00,
2013-08-15 18:49:00,73.0,71.0,-100.00,NE,56,5.0,12.0,93,0.30,,,0.88,1.000000,,2013-08-15 22:49:00,
2013-08-15 18:58:00,73.0,71.0,-100.00,NE,56,5.0,12.0,93,0.30,,,0.88,1.000000,,2013-08-15 22:58:00,
2013-08-15 19:04:00,73.0,71.0,-100.00,NW,306,2.0,8.0,94,0.01,,,0.89,10.000000,,2013-08-15 23:04:00,
2013-08-15 19:35:00,-999.0,-99.9,-100.00,NW,306,2.0,8.0,94,0.01,,,0.89,10.000000,,2013-08-15 23:35:00,
2013-08-15 19:48:00,73.0,71.0,-100.00,NW,306,2.0,8.0,94,0.01,,,0.89,10.000000,,2013-08-15 23:48:00,
2013-08-15 19:55:00,73.0,71.0,-100.00,NW,306,2.0,8.0,94,0.01,,,0.89,10.000000,,2013-08-15 23:55:00,
2013-08-15 20:04:00,72.0,70.0,-100.00,ENE,65,3.0,5.0,93,0.00,,,0.74,9.000000,,2013-08-16 00:04:00,
2013-08-15 20:46:00,72.0,70.0,-100.00,ENE,65,3.0,5.0,93,0.00,,,0.74,9.000000,,2013-08-16 00:46:00,
2013-08-15 20:52:00,72.0,70.0,-100.00,ENE,65,3.0,5.0,93,0.00,,,0.74,9.000000,,2013-08-16 00:52:00,
2013-08-15 21:43:00,-999.0,-99.9,-100.00,SSW,208,0.0,-999.0,-999,-99.99,,,-99.99,,,2013-08-16 01:43:00,
2013-08-15 21:54:00,71.0,69.0,-100.00,SSW,208,0.0,4.0,93,0.00,,,0.71,1.000000,,2013-08-16 01:54:00,
2013-08-15 22:02:00,71.0,69.0,-100.00,SSW,208,0.0,4.0,93,0.00,,,0.71,1.000000,,2013-08-16 02:02:00,
2013-08-15 22:44:00,71.0,69.0,-100.00,SSE,150,0.0,0.0,94,0.00,,,0.70,0.000000,,2013-08-16 02:44:00,
2013-08-15 22:52:00,71.0,69.0,-100.00,SSE,150,0.0,0.0,94,0.00,,,0.70,0.000000,,2013-08-16 02:52:00,
2013-08-15 23:03:00,71.0,69.0,-100.00,SSE,150,0.0,0.0,94,0.00,,,0.70,0.000000,,2013-08-16 03:03:00,
2013-08-15 23:43:00,71.0,69.0,-100.00,NW,307,0.0,0.0,94,0.00,,,0.36,0.000000,,2013-08-16 03:43:00,
2013-08-15 23:53:00,71.0,69.0,-100.00,NW,307,0.0,0.0,94,0.00,,,0.36,0.000000,,2013-08-16 03:53:00,